createdAt,value
2023-06-24T00:00:57.910Z,281.35
2023-06-24T00:01:58.058Z,281.35
2023-06-24T00:02:57.899Z,281.83
2023-06-24T00:04:04.147Z,282.55
2023-06-24T00:04:57.825Z,282.55
2023-06-24T00:05:57.842Z,281.35
2023-06-24T00:06:57.879Z,282.07
2023-06-24T00:07:57.829Z,281.11
2023-06-24T00:09:04.054Z,281.83
2023-06-24T00:09:57.765Z,282.31
2023-06-24T00:10:57.781Z,283.04
2023-06-24T00:11:57.780Z,283.04
2023-06-24T00:12:57.738Z,282.31
2023-06-24T00:14:03.982Z,283.04
2023-06-24T00:14:57.750Z,282.55
2023-06-24T00:15:57.744Z,282.31
2023-06-24T00:16:57.716Z,283.04
2023-06-24T00:17:57.685Z,283.28
2023-06-24T00:19:03.932Z,282.55
2023-06-24T00:19:57.651Z,284.51
2023-06-24T00:20:57.649Z,285.49
2023-06-24T00:21:57.631Z,283.28
2023-06-24T00:22:57.604Z,284.02
2023-06-24T00:24:03.859Z,284.02
2023-06-24T00:24:57.584Z,284.02
2023-06-24T00:25:57.619Z,284.02
2023-06-24T00:26:57.581Z,284.02
2023-06-24T00:27:57.570Z,284.51
2023-06-24T00:28:57.601Z,285.24
2023-06-24T00:30:03.745Z,285.49
2023-06-24T00:30:57.497Z,284.51
2023-06-24T00:31:57.539Z,285.00
2023-06-24T00:32:57.539Z,285.49
2023-06-24T00:33:57.486Z,285.00
2023-06-24T00:35:03.678Z,284.51
2023-06-24T00:35:57.445Z,285.99
2023-06-24T00:36:57.468Z,284.75
2023-06-24T00:37:57.447Z,285.99
2023-06-24T00:38:57.436Z,285.24
2023-06-24T00:40:03.663Z,287.74
2023-06-24T00:40:57.373Z,285.74
2023-06-24T00:41:57.419Z,284.02
2023-06-24T00:42:57.361Z,285.00
2023-06-24T00:43:57.335Z,285.00
2023-06-24T00:44:57.366Z,284.26
2023-06-24T00:46:03.572Z,285.24
2023-06-24T00:46:57.331Z,285.49
2023-06-24T00:47:57.376Z,285.24
2023-06-24T00:48:57.296Z,284.51
2023-06-24T00:49:57.282Z,285.24
2023-06-24T00:51:03.535Z,284.75
2023-06-24T00:51:57.292Z,282.55
2023-06-24T00:52:57.252Z,285.49
2023-06-24T00:53:57.245Z,284.02
2023-06-24T00:54:57.206Z,284.51
2023-06-24T00:55:57.233Z,284.75
2023-06-24T00:57:03.529Z,285.99
2023-06-24T00:57:57.222Z,285.99
2023-06-24T00:58:57.141Z,284.26
2023-06-24T00:59:57.144Z,283.53
2023-06-24T01:00:57.126Z,285.49
2023-06-24T01:01:57.259Z,285.00
2023-06-24T01:03:03.577Z,285.24
2023-06-24T01:03:57.172Z,285.00
2023-06-24T01:04:57.094Z,284.02
2023-06-24T01:05:57.092Z,285.99
2023-06-24T01:06:57.137Z,285.24
2023-06-24T01:08:03.353Z,285.24
2023-06-24T01:08:57.047Z,284.75
2023-06-24T01:09:57.037Z,284.02
2023-06-24T01:10:56.989Z,285.99
2023-06-24T01:11:56.984Z,285.74
2023-06-24T01:13:03.234Z,285.00
2023-06-24T01:13:56.966Z,284.75
2023-06-24T01:14:56.962Z,282.55
2023-06-24T01:15:56.933Z,285.00
2023-06-24T01:16:56.932Z,286.98
2023-06-24T01:17:56.972Z,285.49
2023-06-24T01:19:03.177Z,285.00
2023-06-24T01:19:56.905Z,285.00
2023-06-24T01:20:56.861Z,285.24
2023-06-24T01:21:56.850Z,285.00
2023-06-24T01:22:56.845Z,285.00
2023-06-24T01:23:56.861Z,283.04
2023-06-24T01:25:03.157Z,283.77
2023-06-24T01:25:56.836Z,284.02
2023-06-24T01:26:56.821Z,285.00
2023-06-24T01:27:56.823Z,282.80
2023-06-24T01:28:56.792Z,282.80
2023-06-24T01:29:56.830Z,284.26
2023-06-24T01:31:03.051Z,284.26
2023-06-24T01:31:57.194Z,282.55
2023-06-24T01:32:56.909Z,283.53
2023-06-24T01:33:56.688Z,284.02
2023-06-24T01:34:56.707Z,282.80
2023-06-24T01:36:02.965Z,281.83
2023-06-24T01:36:56.703Z,284.02
2023-06-24T01:37:56.672Z,283.28
2023-06-24T01:38:56.664Z,282.07
2023-06-24T01:39:56.628Z,282.55
2023-06-24T01:40:56.687Z,280.87
2023-06-24T01:42:02.868Z,282.55
2023-06-24T01:42:56.614Z,283.28
2023-06-24T01:43:56.568Z,281.11
2023-06-24T01:44:56.566Z,281.59
2023-06-24T01:45:56.643Z,282.31
2023-06-24T01:46:56.550Z,283.04
2023-06-24T01:48:02.846Z,283.53
2023-06-24T01:48:56.498Z,283.04
2023-06-24T01:49:56.500Z,283.04
2023-06-24T01:50:56.518Z,282.80
2023-06-24T01:51:56.521Z,282.31
2023-06-24T01:52:56.468Z,283.04
2023-06-24T01:54:02.679Z,283.28
2023-06-24T01:54:56.481Z,283.04
2023-06-24T01:55:56.429Z,282.55
2023-06-24T01:56:56.479Z,282.55
2023-06-24T01:57:56.455Z,284.02
2023-06-24T01:58:56.434Z,284.75
2023-06-24T02:00:02.620Z,285.99
2023-06-24T02:00:56.374Z,285.00
2023-06-24T02:01:56.464Z,285.49
2023-06-24T02:02:56.389Z,285.49
2023-06-24T02:03:56.347Z,285.49
2023-06-24T02:05:02.586Z,286.49
2023-06-24T02:05:56.325Z,286.98
2023-06-24T02:06:56.325Z,287.49
2023-06-24T02:07:56.258Z,287.74
2023-06-24T02:08:56.364Z,287.74
2023-06-24T02:10:02.540Z,286.98
2023-06-24T02:10:56.240Z,288.24
2023-06-24T02:11:56.216Z,288.49
2023-06-24T02:12:56.204Z,286.98
2023-06-24T02:13:56.287Z,287.49
2023-06-24T02:14:56.240Z,287.49
2023-06-24T02:16:02.449Z,287.74
2023-06-24T02:16:56.164Z,289.00
2023-06-24T02:17:56.154Z,286.73
2023-06-24T02:18:56.125Z,287.49
2023-06-24T02:19:56.121Z,288.24
2023-06-24T02:20:56.192Z,288.49
2023-06-24T02:22:02.389Z,286.49
2023-06-24T02:22:56.071Z,289.25
2023-06-24T02:23:56.066Z,289.76
2023-06-24T02:24:56.084Z,288.49
2023-06-24T02:25:56.147Z,289.25
2023-06-24T02:26:56.046Z,289.25
2023-06-24T02:28:02.269Z,289.51
2023-06-24T02:28:55.998Z,288.49
2023-06-24T02:29:56.076Z,290.02
2023-06-24T02:30:56.122Z,288.75
2023-06-24T02:31:55.988Z,290.27
2023-06-24T02:33:02.261Z,288.75
2023-06-24T02:33:55.952Z,290.02
2023-06-24T02:34:55.953Z,288.75
2023-06-24T02:35:55.970Z,289.76
2023-06-24T02:36:56.009Z,288.49
2023-06-24T02:38:02.168Z,288.75
2023-06-24T02:38:55.878Z,288.75
2023-06-24T02:39:55.893Z,287.74
2023-06-24T02:40:55.871Z,288.49
2023-06-24T02:41:56.032Z,288.49
2023-06-24T02:43:02.084Z,287.49
2023-06-24T02:43:55.822Z,289.51
2023-06-24T02:44:55.888Z,289.00
2023-06-24T02:45:55.793Z,287.49
2023-06-24T02:46:55.816Z,287.23
2023-06-24T02:48:02.103Z,289.00
2023-06-24T02:48:55.805Z,287.99
2023-06-24T02:49:55.809Z,286.98
2023-06-24T02:50:55.731Z,288.49
2023-06-24T02:51:55.739Z,288.75
2023-06-24T02:53:01.977Z,286.98
2023-06-24T02:53:55.700Z,289.00
2023-06-24T02:54:55.668Z,289.00
2023-06-24T02:55:55.682Z,289.00
2023-06-24T02:56:55.665Z,289.25
2023-06-24T02:58:01.947Z,288.75
2023-06-24T02:58:55.677Z,288.24
2023-06-24T02:59:55.638Z,289.25
2023-06-24T03:00:55.590Z,289.25
2023-06-24T03:01:55.615Z,289.00
2023-06-24T03:03:01.904Z,287.49
2023-06-24T03:03:55.730Z,287.74
2023-06-24T03:04:55.553Z,289.00
2023-06-24T03:05:55.548Z,286.73
2023-06-24T03:06:55.553Z,288.75
2023-06-24T03:07:55.528Z,287.23
2023-06-24T03:09:01.781Z,289.00
2023-06-24T03:09:55.536Z,288.49
2023-06-24T03:10:55.512Z,287.49
2023-06-24T03:11:55.456Z,288.49
2023-06-24T03:12:55.522Z,287.99
2023-06-24T03:13:55.449Z,288.49
2023-06-24T03:15:01.638Z,287.99
2023-06-24T03:15:55.482Z,286.98
2023-06-24T03:16:55.403Z,289.00
2023-06-24T03:17:55.459Z,287.99
2023-06-24T03:18:55.400Z,286.98
2023-06-24T03:19:55.359Z,287.74
2023-06-24T03:21:01.647Z,288.49
2023-06-24T03:21:55.340Z,288.49
2023-06-24T03:22:55.297Z,287.99
2023-06-24T03:23:55.307Z,287.49
2023-06-24T03:24:55.299Z,286.98
2023-06-24T03:25:55.306Z,287.99
2023-06-24T03:27:01.613Z,287.99
2023-06-24T03:27:55.262Z,288.49
2023-06-24T03:28:55.276Z,287.74
2023-06-24T03:29:55.277Z,287.99
2023-06-24T03:30:55.210Z,286.98
2023-06-24T03:32:01.527Z,285.24
2023-06-24T03:32:55.272Z,287.23
2023-06-24T03:33:55.174Z,288.49
2023-06-24T03:34:55.174Z,285.99
2023-06-24T03:35:55.152Z,285.99
2023-06-24T03:37:01.408Z,287.49
2023-06-24T03:37:55.144Z,287.49
2023-06-24T03:38:55.121Z,287.74
2023-06-24T03:39:55.105Z,287.23
2023-06-24T03:40:55.097Z,286.98
2023-06-24T03:41:55.095Z,286.73
2023-06-24T03:43:01.302Z,289.00
2023-06-24T03:43:55.064Z,287.99
2023-06-24T03:44:55.038Z,289.00
2023-06-24T03:45:55.026Z,290.02
2023-06-24T03:46:55.072Z,288.49
2023-06-24T03:47:55.056Z,288.49
2023-06-24T03:49:01.269Z,288.49
2023-06-24T03:49:55.039Z,288.24
2023-06-24T03:50:54.946Z,288.75
2023-06-24T03:51:54.970Z,289.51
2023-06-24T03:52:54.933Z,289.76
2023-06-24T03:53:54.945Z,290.27
2023-06-24T03:55:01.185Z,291.30
2023-06-24T03:55:54.961Z,289.00
2023-06-24T03:56:54.864Z,290.02
2023-06-24T03:57:54.854Z,290.53
2023-06-24T03:58:54.862Z,289.76
2023-06-24T03:59:54.893Z,289.76
2023-06-24T04:01:01.060Z,291.04
2023-06-24T04:01:54.861Z,291.04
2023-06-24T04:02:54.837Z,288.24
2023-06-24T04:03:54.822Z,290.27
2023-06-24T04:04:54.822Z,291.30
2023-06-24T04:05:54.758Z,291.04
2023-06-24T04:07:01.038Z,293.11
2023-06-24T04:07:54.748Z,291.04
2023-06-24T04:08:54.757Z,291.56
2023-06-24T04:09:54.745Z,290.02
2023-06-24T04:10:54.697Z,290.27
2023-06-24T04:12:00.944Z,289.76
2023-06-24T04:12:54.727Z,290.02
2023-06-24T04:13:54.661Z,289.51
2023-06-24T04:14:54.671Z,291.30
2023-06-24T04:15:54.667Z,289.00
2023-06-24T04:16:54.620Z,288.75
2023-06-24T04:18:00.957Z,290.02
2023-06-24T04:18:54.620Z,290.02
2023-06-24T04:19:54.598Z,289.76
2023-06-24T04:20:54.613Z,290.02
2023-06-24T04:21:54.529Z,288.75
2023-06-24T04:22:54.633Z,287.99
2023-06-24T04:24:00.807Z,287.99
2023-06-24T04:24:54.534Z,287.49
2023-06-24T04:25:54.494Z,288.49
2023-06-24T04:26:54.510Z,286.49
2023-06-24T04:27:54.496Z,286.49
2023-06-24T04:29:00.737Z,285.99
2023-06-24T04:29:54.464Z,284.02
2023-06-24T04:30:54.510Z,284.75
2023-06-24T04:31:54.443Z,283.53
2023-06-24T04:32:54.435Z,284.51
2023-06-24T04:34:00.762Z,282.80
2023-06-24T04:34:54.401Z,283.04
2023-06-24T04:35:55.596Z,284.26
2023-06-24T04:36:54.345Z,282.31
2023-06-24T04:37:54.361Z,283.53
2023-06-24T04:39:00.676Z,282.80
2023-06-24T04:39:54.333Z,282.31
2023-06-24T04:40:54.373Z,282.07
2023-06-24T04:41:54.304Z,281.83
2023-06-24T04:42:54.279Z,280.39
2023-06-24T04:44:00.583Z,282.31
2023-06-24T04:44:54.294Z,279.20
2023-06-24T04:45:54.372Z,280.63
2023-06-24T04:46:54.297Z,279.44
2023-06-24T04:47:54.263Z,279.20
2023-06-24T04:48:54.228Z,279.91
2023-06-24T04:50:00.465Z,278.73
2023-06-24T04:50:54.232Z,279.67
2023-06-24T04:51:54.140Z,278.26
2023-06-24T04:52:54.203Z,276.62
2023-06-24T04:53:54.190Z,278.26
2023-06-24T04:55:00.447Z,278.26
2023-06-24T04:55:54.205Z,276.85
2023-06-24T04:56:54.183Z,278.73
2023-06-24T04:57:54.121Z,276.39
2023-06-24T04:58:54.093Z,277.79
2023-06-24T05:00:00.401Z,276.85
2023-06-24T05:00:54.079Z,276.62
2023-06-24T05:01:54.086Z,277.55
2023-06-24T05:02:54.178Z,276.85
2023-06-24T05:03:54.042Z,278.02
2023-06-24T05:05:00.364Z,276.85
2023-06-24T05:05:54.044Z,275.00
2023-06-24T05:06:54.255Z,274.55
2023-06-24T05:07:54.033Z,275.92
2023-06-24T05:08:53.966Z,275.46
2023-06-24T05:09:54.002Z,275.46
2023-06-24T05:11:00.247Z,274.55
2023-06-24T05:11:53.920Z,275.00
2023-06-24T05:12:53.921Z,272.95
2023-06-24T05:13:53.935Z,273.18
2023-06-24T05:14:54.065Z,273.63
2023-06-24T05:15:53.879Z,272.95
2023-06-24T05:17:00.165Z,272.05
2023-06-24T05:17:54.264Z,272.05
2023-06-24T05:18:53.862Z,271.38
2023-06-24T05:19:53.855Z,270.04
2023-06-24T05:20:53.833Z,271.60
2023-06-24T05:21:53.824Z,270.71
2023-06-24T05:23:00.086Z,268.28
2023-06-24T05:23:53.844Z,269.82
2023-06-24T05:24:53.784Z,268.28
2023-06-24T05:25:53.762Z,269.60
2023-06-24T05:26:53.766Z,267.85
2023-06-24T05:27:53.746Z,268.94
2023-06-24T05:28:59.985Z,265.69
2023-06-24T05:29:53.718Z,267.63
2023-06-24T05:30:53.703Z,266.11
2023-06-24T05:31:53.690Z,265.69
2023-06-24T05:32:53.802Z,265.47
2023-06-24T05:33:59.907Z,264.83
2023-06-24T05:34:53.667Z,263.98
2023-06-24T05:35:53.639Z,263.77
2023-06-24T05:36:53.617Z,263.56
2023-06-24T05:37:53.634Z,263.14
2023-06-24T05:38:53.573Z,263.14
2023-06-24T05:40:01.320Z,262.51
2023-06-24T05:40:53.563Z,262.30
2023-06-24T05:41:53.576Z,261.67
2023-06-24T05:42:53.533Z,262.30
2023-06-24T05:43:53.561Z,262.30
2023-06-24T05:44:53.488Z,261.26
2023-06-24T05:45:59.762Z,261.05
2023-06-24T05:46:53.529Z,261.26
2023-06-24T05:47:53.481Z,261.05
2023-06-24T05:48:53.497Z,260.85
2023-06-24T05:49:53.454Z,259.82
2023-06-24T05:50:53.437Z,261.05
2023-06-24T05:51:59.756Z,261.05
2023-06-24T05:52:53.467Z,260.64
2023-06-24T05:53:53.391Z,260.02
2023-06-24T05:54:53.433Z,260.23
2023-06-24T05:55:53.395Z,259.61
2023-06-24T05:56:53.349Z,259.41
2023-06-24T05:58:01.559Z,260.43
2023-06-24T05:58:53.350Z,259.00
2023-06-24T05:59:53.330Z,260.64
2023-06-24T06:00:53.315Z,259.61
2023-06-24T06:01:53.348Z,259.82
2023-06-24T06:02:53.424Z,259.00
2023-06-24T06:03:59.613Z,260.23
2023-06-24T06:04:53.330Z,260.64
2023-06-24T06:05:53.298Z,259.41
2023-06-24T06:06:53.251Z,260.43
2023-06-24T06:07:53.219Z,259.41
2023-06-24T06:08:53.226Z,259.41
2023-06-24T06:09:59.418Z,259.41
2023-06-24T06:10:54.531Z,258.59
2023-06-24T06:11:53.164Z,258.59
2023-06-24T06:12:53.138Z,258.39
2023-06-24T06:13:53.127Z,259.41
2023-06-24T06:14:59.380Z,260.43
2023-06-24T06:15:53.123Z,260.23
2023-06-24T06:16:53.123Z,259.82
2023-06-24T06:17:53.100Z,260.64
2023-06-24T06:18:53.059Z,260.64
2023-06-24T06:19:53.110Z,260.23
2023-06-24T06:20:59.297Z,259.00
2023-06-24T06:21:53.063Z,260.02
2023-06-24T06:22:53.029Z,259.20
2023-06-24T06:23:53.015Z,259.20
2023-06-24T06:24:53.037Z,259.00
2023-06-24T06:25:59.245Z,258.80
2023-06-24T06:26:52.963Z,259.00
2023-06-24T06:27:52.977Z,259.41
2023-06-24T06:28:52.973Z,258.39
2023-06-24T06:29:52.942Z,257.78
2023-06-24T06:30:52.937Z,258.39
2023-06-24T06:31:59.158Z,258.59
2023-06-24T06:32:52.905Z,258.19
2023-06-24T06:33:52.898Z,258.59
2023-06-24T06:34:52.918Z,256.78
2023-06-24T06:35:52.884Z,257.18
2023-06-24T06:36:52.819Z,257.38
2023-06-24T06:37:59.083Z,255.78
2023-06-24T06:38:52.819Z,257.58
2023-06-24T06:39:52.846Z,257.38
2023-06-24T06:40:52.851Z,256.98
2023-06-24T06:41:52.783Z,256.78
2023-06-24T06:42:52.751Z,255.38
2023-06-24T06:43:58.990Z,256.18
2023-06-24T06:44:52.738Z,255.58
2023-06-24T06:45:52.788Z,255.38
2023-06-24T06:46:52.742Z,254.99
2023-06-24T06:47:52.738Z,255.19
2023-06-24T06:48:58.975Z,254.99
2023-06-24T06:49:52.684Z,254.99
2023-06-24T06:50:52.693Z,255.38
2023-06-24T06:51:52.694Z,254.60
2023-06-24T06:52:52.719Z,254.79
2023-06-24T06:53:58.888Z,254.60
2023-06-24T06:54:52.633Z,254.40
2023-06-24T06:55:52.657Z,254.40
2023-06-24T06:56:52.602Z,253.62
2023-06-24T06:57:52.632Z,253.81
2023-06-24T06:58:52.748Z,254.01
2023-06-24T06:59:58.833Z,254.20
2023-06-24T07:00:52.615Z,253.62
2023-06-24T07:01:52.560Z,253.42
2023-06-24T07:02:52.558Z,254.01
2023-06-24T07:03:52.545Z,253.42
2023-06-24T07:04:58.772Z,254.40
2023-06-24T07:05:52.520Z,253.62
2023-06-24T07:06:52.554Z,254.20
2023-06-24T07:07:52.449Z,254.20
2023-06-24T07:08:52.454Z,254.01
2023-06-24T07:09:52.423Z,253.62
2023-06-24T07:10:58.692Z,253.42
2023-06-24T07:11:52.386Z,252.84
2023-06-24T07:12:52.381Z,252.84
2023-06-24T07:13:52.398Z,252.64
2023-06-24T07:14:52.465Z,251.87
2023-06-24T07:15:58.638Z,251.10
2023-06-24T07:16:52.334Z,252.26
2023-06-24T07:17:52.369Z,250.34
2023-06-24T07:18:52.300Z,249.39
2023-06-24T07:19:52.316Z,250.72
2023-06-24T07:20:52.294Z,249.77
2023-06-24T07:21:58.539Z,249.58
2023-06-24T07:22:52.329Z,247.33
2023-06-24T07:23:52.346Z,248.82
2023-06-24T07:24:52.258Z,249.01
2023-06-24T07:25:52.352Z,247.70
2023-06-24T07:26:58.512Z,248.82
2023-06-24T07:27:52.234Z,247.33
2023-06-24T07:29:07.441Z,247.33
2023-06-24T07:29:53.680Z,247.51
2023-06-24T07:30:52.194Z,246.96
2023-06-24T07:31:52.178Z,246.22
2023-06-24T07:32:58.390Z,246.59
2023-06-24T07:33:52.096Z,245.85
2023-06-24T07:34:52.107Z,246.59
2023-06-24T07:35:52.109Z,244.03
2023-06-24T07:36:52.120Z,246.77
2023-06-24T07:37:52.092Z,243.31
2023-06-24T07:38:58.317Z,245.12
2023-06-24T07:39:52.102Z,245.12
2023-06-24T07:40:52.097Z,240.99
2023-06-24T07:41:52.076Z,243.49
2023-06-24T07:42:51.992Z,241.35
2023-06-24T07:43:58.218Z,239.77
2023-06-24T07:44:52.003Z,240.47
2023-06-24T07:45:51.940Z,238.90
2023-06-24T07:46:52.009Z,238.03
2023-06-24T07:47:51.969Z,237.35
2023-06-24T07:48:58.241Z,237.69
2023-06-24T07:49:51.941Z,237.01
2023-06-24T07:50:51.908Z,234.64
2023-06-24T07:51:51.894Z,235.31
2023-06-24T07:52:51.869Z,234.98
2023-06-24T07:53:58.129Z,233.64
2023-06-24T07:54:51.904Z,232.82
2023-06-24T07:55:51.881Z,233.64
2023-06-24T07:56:51.857Z,232.16
2023-06-24T07:57:51.879Z,230.86
2023-06-24T07:58:58.143Z,231.51
2023-06-24T07:59:51.819Z,229.73
2023-06-24T08:00:51.789Z,229.41
2023-06-24T08:01:51.754Z,229.09
2023-06-24T08:02:51.837Z,228.30
2023-06-24T08:03:58.099Z,227.20
2023-06-24T08:04:52.013Z,228.30
2023-06-24T08:05:51.717Z,226.88
2023-06-24T08:06:51.752Z,225.95
2023-06-24T08:07:51.745Z,226.41
2023-06-24T08:08:57.905Z,224.10
2023-06-24T08:09:51.769Z,223.65
2023-06-24T08:10:51.673Z,223.95
2023-06-24T08:11:51.641Z,223.65
2023-06-24T08:12:51.634Z,222.29
2023-06-24T08:13:51.612Z,223.35
2023-06-24T08:14:57.939Z,220.95
2023-06-24T08:15:51.592Z,221.69
2023-06-24T08:16:51.615Z,221.10
2023-06-24T08:17:51.722Z,221.84
2023-06-24T08:18:51.583Z,222.59
2023-06-24T08:19:57.810Z,221.39
2023-06-24T08:20:51.549Z,222.74
2023-06-24T08:21:51.538Z,223.19
2023-06-24T08:22:51.552Z,222.74
2023-06-24T08:23:51.560Z,222.89
2023-06-24T08:24:51.577Z,224.26
2023-06-24T08:26:08.321Z,223.04
2023-06-24T08:26:52.967Z,223.19
2023-06-24T08:27:51.459Z,223.35
2023-06-24T08:28:51.497Z,222.59
2023-06-24T08:29:51.411Z,223.35
2023-06-24T08:30:57.686Z,221.39
2023-06-24T08:31:51.426Z,220.80
2023-06-24T08:32:51.447Z,221.39
2023-06-24T08:33:51.351Z,219.91
2023-06-24T08:34:51.485Z,218.60
2023-06-24T08:35:51.337Z,219.62
2023-06-24T08:36:57.622Z,219.33
2023-06-24T08:37:51.348Z,218.02
2023-06-24T08:38:51.335Z,216.73
2023-06-24T08:39:51.345Z,217.88
2023-06-24T08:40:51.260Z,214.61
2023-06-24T08:41:57.516Z,214.05
2023-06-24T08:42:51.293Z,211.99
2023-06-24T08:43:51.238Z,211.04
2023-06-24T08:44:51.251Z,210.23
2023-06-24T08:45:51.248Z,209.56
2023-06-24T08:46:51.216Z,208.63
2023-06-24T08:47:57.536Z,209.83
2023-06-24T08:48:51.264Z,210.63
2023-06-24T08:49:51.185Z,208.50
2023-06-24T08:50:51.194Z,209.56
2023-06-24T08:51:51.154Z,208.24
2023-06-24T08:52:57.388Z,207.32
2023-06-24T08:53:51.160Z,207.19
2023-06-24T08:54:51.145Z,206.15
2023-06-24T08:55:51.222Z,206.02
2023-06-24T08:56:51.115Z,205.12
2023-06-24T08:57:57.310Z,201.98
2023-06-24T08:58:51.083Z,201.98
2023-06-24T08:59:51.063Z,200.87
2023-06-24T09:00:51.035Z,200.50
2023-06-24T09:01:51.056Z,200.50
2023-06-24T09:02:57.370Z,199.29
2023-06-24T09:03:51.041Z,200.14
2023-06-24T09:04:51.034Z,200.99
2023-06-24T09:05:51.036Z,200.38
2023-06-24T09:06:51.000Z,199.89
2023-06-24T09:07:57.222Z,201.48
2023-06-24T09:08:50.942Z,200.14
2023-06-24T09:09:50.961Z,199.41
2023-06-24T09:10:50.938Z,200.75
2023-06-24T09:11:50.875Z,198.21
2023-06-24T09:12:50.898Z,199.77
2023-06-24T10:11:16.242Z,157.87
2023-06-24T10:12:16.208Z,141.83
2023-06-24T10:13:16.227Z,138.43
2023-06-24T10:19:07.583Z,181.87
2023-06-24T10:20:07.546Z,164.54
2023-06-24T10:21:07.557Z,156.84
2023-06-24T10:22:07.543Z,153.81
2023-06-24T10:23:07.548Z,151.31
2023-06-24T10:24:07.559Z,149.96
2023-06-24T10:25:13.820Z,149.15
2023-06-24T10:26:07.465Z,148.36
2023-06-24T10:27:09.506Z,148.36
2023-06-24T10:28:07.547Z,147.58
2023-06-24T10:29:07.518Z,148.36
2023-06-24T10:30:07.456Z,147.58
2023-06-24T10:31:13.723Z,148.62
2023-06-24T10:32:07.498Z,147.58
2023-06-24T10:33:07.442Z,147.84
2023-06-24T10:34:07.405Z,148.62
2023-06-24T10:35:07.389Z,148.36
2023-06-24T10:36:07.357Z,148.76
2023-06-24T10:37:13.585Z,148.49
2023-06-24T10:38:07.379Z,148.62
2023-06-24T10:39:07.317Z,149.02
2023-06-24T10:40:08.223Z,147.97
2023-06-24T10:41:07.267Z,147.71
2023-06-24T10:42:07.281Z,147.71
2023-06-24T10:43:13.508Z,147.71
2023-06-24T10:44:07.229Z,147.45
2023-06-24T10:45:07.289Z,146.42
2023-06-24T10:46:08.084Z,146.42
2023-06-24T10:47:07.256Z,146.67
2023-06-24T10:48:13.490Z,146.29
2023-06-24T10:49:07.194Z,146.16
2023-06-24T10:50:07.232Z,145.52
2023-06-24T10:51:07.150Z,145.02
2023-06-24T10:52:08.116Z,146.03
2023-06-24T10:53:13.494Z,145.27
2023-06-24T10:54:07.136Z,145.02
2023-06-24T10:55:07.123Z,143.78
2023-06-24T10:56:07.067Z,144.65
2023-06-24T10:57:07.137Z,144.02
2023-06-24T10:58:07.108Z,143.41
2023-06-24T10:59:13.291Z,142.55
2023-06-24T11:00:07.062Z,141.35
2023-06-24T11:01:07.083Z,141.83
2023-06-24T11:02:07.043Z,140.76
2023-06-24T11:03:07.158Z,140.64
2023-06-24T11:04:07.453Z,139.82
2023-06-24T11:05:13.298Z,139.70
2023-06-24T11:06:07.014Z,138.09
2023-06-24T11:07:07.002Z,138.32
2023-06-24T11:08:06.965Z,137.18
2023-06-24T11:09:06.910Z,137.07
2023-06-24T11:10:06.964Z,136.40
2023-06-24T11:11:13.159Z,135.63
2023-06-24T11:12:06.897Z,135.30
2023-06-24T11:13:06.929Z,134.54
2023-06-24T11:14:06.860Z,134.75
2023-06-24T11:15:06.914Z,133.47
2023-06-24T11:16:06.939Z,132.83
2023-06-24T11:17:13.062Z,132.10
2023-06-24T11:18:06.953Z,131.48
2023-06-24T11:19:06.853Z,131.17
2023-06-24T11:20:06.799Z,130.45
2023-06-24T11:21:06.857Z,130.15
2023-06-24T11:22:13.180Z,129.54
2023-06-24T11:23:06.770Z,129.14
2023-06-24T11:24:06.725Z,129.04
2023-06-24T11:25:06.761Z,127.96
2023-06-24T11:26:06.740Z,126.99
2023-06-24T11:27:06.704Z,126.80
2023-06-24T11:28:12.949Z,125.19
2023-06-24T11:29:06.696Z,125.09
2023-06-24T11:30:06.728Z,124.35
2023-06-24T11:31:06.675Z,123.62
2023-06-24T11:32:10.506Z,123.43
2023-06-24T11:33:06.726Z,122.08
2023-06-24T11:34:12.902Z,122.08
2023-06-24T11:35:06.643Z,121.11
2023-06-24T11:36:06.654Z,120.59
2023-06-24T11:37:06.617Z,120.24
2023-06-24T11:38:06.621Z,119.56
2023-06-24T11:39:14.448Z,119.56
2023-06-24T11:40:06.574Z,120.07
2023-06-24T11:41:06.577Z,119.39
2023-06-24T11:42:06.604Z,119.22
2023-06-24T11:43:06.597Z,118.37
2023-06-24T11:44:12.795Z,118.71
2023-06-24T11:45:06.621Z,117.79
2023-06-24T11:46:06.565Z,118.37
2023-06-24T11:47:06.548Z,118.37
2023-06-24T11:48:06.564Z,117.38
2023-06-24T11:49:12.722Z,117.87
2023-06-24T11:50:06.488Z,117.79
2023-06-24T11:51:06.469Z,116.81
2023-06-24T11:52:06.426Z,116.72
2023-06-24T11:53:06.415Z,116.56
2023-06-24T11:54:12.682Z,116.16
2023-06-24T11:55:06.489Z,116.08
2023-06-24T11:56:06.371Z,115.52
2023-06-24T11:57:06.487Z,115.44
2023-06-24T11:58:06.491Z,114.96
2023-06-24T11:59:12.616Z,114.49
2023-06-24T12:00:06.371Z,114.10
2023-06-24T12:01:06.340Z,112.95
2023-06-24T12:02:06.311Z,112.79
2023-06-24T12:03:08.866Z,112.26
2023-06-24T12:04:07.887Z,111.52
2023-06-24T12:05:12.695Z,111.00
2023-06-24T12:06:06.288Z,110.63
2023-06-24T12:07:06.264Z,109.98
2023-06-24T12:08:06.256Z,109.26
2023-06-24T12:09:06.697Z,108.62
2023-06-24T12:10:12.561Z,108.41
2023-06-24T12:11:06.378Z,108.84
2023-06-24T12:12:06.252Z,108.13
2023-06-24T12:13:06.465Z,107.65
2023-06-24T12:14:06.124Z,107.65
2023-06-24T12:15:08.167Z,106.15
2023-06-24T12:16:12.379Z,106.21
2023-06-24T12:17:06.187Z,106.08
2023-06-24T12:18:06.127Z,105.68
2023-06-24T12:19:06.121Z,105.28
2023-06-24T12:20:06.067Z,105.68
2023-06-24T12:21:12.388Z,105.01
2023-06-24T12:22:06.142Z,104.95
2023-06-24T12:23:06.045Z,104.10
2023-06-24T12:24:06.803Z,104.04
2023-06-24T12:25:06.013Z,104.62
2023-06-24T12:26:12.326Z,103.91
2023-06-24T12:27:07.315Z,103.78
2023-06-24T12:28:06.017Z,103.59
2023-06-24T12:29:06.012Z,103.59
2023-06-24T12:30:05.972Z,103.33
2023-06-24T12:31:06.019Z,103.33
2023-06-24T12:32:12.269Z,102.70
2023-06-24T12:33:05.929Z,102.57
2023-06-24T12:34:05.899Z,102.13
2023-06-24T12:35:05.972Z,101.51
2023-06-24T12:36:05.865Z,101.70
2023-06-24T12:37:05.919Z,101.27
2023-06-24T12:38:12.138Z,100.66
2023-06-24T12:39:05.864Z,99.52
2023-06-24T12:40:05.849Z,99.52
2023-06-24T12:41:05.874Z,98.70
2023-06-24T12:42:05.786Z,98.36
2023-06-24T12:43:12.105Z,97.84
2023-06-24T12:44:05.787Z,97.78
2023-06-24T12:45:05.795Z,97.44
2023-06-24T12:46:05.738Z,97.16
2023-06-24T12:47:05.800Z,96.65
2023-06-24T12:48:05.822Z,96.65
2023-06-24T12:49:12.031Z,96.10
2023-06-24T12:50:07.977Z,95.88
2023-06-24T12:51:05.721Z,95.77
2023-06-24T12:52:05.699Z,94.90
2023-06-24T12:53:05.695Z,94.58
2023-06-24T12:54:11.938Z,94.31
2023-06-24T12:55:05.701Z,95.36
2023-06-24T12:56:05.646Z,94.92
2023-06-24T12:57:13.517Z,94.60
2023-06-24T12:58:07.140Z,93.86
2023-06-24T12:59:05.616Z,93.75
2023-06-24T13:00:12.003Z,93.44
2023-06-24T13:01:05.631Z,93.23
2023-06-24T13:02:05.598Z,93.03
2023-06-24T13:03:05.586Z,92.82
2023-06-24T13:04:05.637Z,92.00
2023-06-24T13:05:11.803Z,92.11
2023-06-24T13:06:05.559Z,91.20
2023-06-24T13:07:05.513Z,90.61
2023-06-24T13:08:05.544Z,90.22
2023-06-24T13:09:05.528Z,90.12
2023-06-24T13:10:11.822Z,89.64
2023-06-24T13:11:05.478Z,88.69
2023-06-24T13:12:05.516Z,88.79
2023-06-24T13:13:05.465Z,88.13
2023-06-24T13:14:05.410Z,87.49
2023-06-24T13:15:05.458Z,87.21
2023-06-24T13:16:11.649Z,86.58
2023-06-24T13:17:05.387Z,86.14
2023-06-24T13:18:05.432Z,86.05
2023-06-24T13:19:05.402Z,86.14
2023-06-24T13:20:05.368Z,85.26
2023-06-24T13:21:15.523Z,84.92
2023-06-24T13:22:13.075Z,85.17
2023-06-24T13:23:05.312Z,84.40
2023-06-24T13:24:05.316Z,83.89
2023-06-24T13:25:05.343Z,84.23
2023-06-24T13:26:05.273Z,83.56
2023-06-24T13:27:05.311Z,83.39
2023-06-24T13:28:11.491Z,83.14
2023-06-24T13:29:05.300Z,83.06
2023-06-24T13:30:05.253Z,83.06
2023-06-24T13:31:05.333Z,82.90
2023-06-24T13:32:05.231Z,82.41
2023-06-24T13:33:05.318Z,82.25